Flight Track Log - Related Links

Times and Time Zones

All times are in EDT time to prevent confusion due to time zone crossing. See the N25CX flight status page for this flight to view local times or setup timezone preferences in your user account.

Time Position Orientation Groundspeed Altitude Reporting Facility
EDT Latitude Longitude Course Direction KTS MPH feet Rate Location/Type
Sun 12:59:17 PM 36.4375 -82.1189 84° East 145 167 6,500  Level Atlanta Center
Sun 01:00:17 PM 36.4431 -82.0722 82° East 138 159 7,400 900 Climbing Atlanta Center
Sun 01:01:17 PM 36.4483 -82.0203 83° East 144 166 8,300 900 Climbing Atlanta Center
Sun 01:02:17 PM 36.4600 -81.9686 74° East 144 166 9,200 800 Climbing Atlanta Center
Sun 01:03:17 PM 36.4653 -81.9142 83° East 144 166 9,900 450 Climbing Atlanta Center
Sun 01:04:00 PM 36.4589 -81.6681 84° East  Level FlightAware Approximate
Sun 01:04:17 PM 36.4706 -81.8469 84° East 172 198 10,100  Level Atlanta Center
Sun 01:05:17 PM 36.4778 -81.7925 81° East 182 209 10,800 400 Climbing Atlanta Center
Sun 01:06:17 PM 36.4828 -81.7278 84° East 182 209 10,900 50 Climbing Atlanta Center
Sun 01:07:17 PM 36.4878 -81.6631 84° East 182 209 10,900  Level Atlanta Center
Sun 01:08:17 PM 36.4928 -81.5983 84° East 187 215 10,900  Level Atlanta Center
Sun 01:09:17 PM 36.4978 -81.5336 84° East 180 207 10,900 100 Level Atlanta Center
Sun 01:10:17 PM 36.5006 -81.4717 87° East 180 207 11,100 450 Climbing Atlanta Center
Sun 01:11:17 PM 36.5078 -81.4094 82° East 175 201 11,800 800 Climbing Atlanta Center
Sun 01:12:17 PM 36.5108 -81.3550 86° East 164 189 12,700 550 Climbing Atlanta Center
Sun 01:13:17 PM 36.5158 -81.2981 84° East 159 183 12,900 150 Climbing Atlanta Center
Sun 01:14:17 PM 36.5203 -81.2281 85° East 179 206 13,000 50 Climbing Atlanta Center
Sun 01:15:17 PM 36.5272 -81.1633 82° East 196 226 13,000  Level Atlanta Center
Sun 01:16:17 PM 36.5319 -81.0961 85° East 196 226 13,000  Level Atlanta Center
Sun 01:17:17 PM 36.5364 -81.0261 85° East 202 232 13,000 50 Level Atlanta Center
Sun 01:18:17 PM 36.5411 -80.9611 85° East 202 232 13,100  Climbing Atlanta Center
Sun 01:19:17 PM 36.5475 -80.8886 84° East 202 232 13,000 -50 Descending Atlanta Center
Sun 01:20:17 PM 36.5519 -80.8161 86° East 196 226 13,000  Level Atlanta Center
Sun 01:21:17 PM 36.5564 -80.7486 85° East 196 226 13,000  Level Atlanta Center
Sun 01:22:17 PM 36.5628 -80.6786 83° East 196 226 13,000  Level Atlanta Center
Sun 01:23:17 PM 36.5672 -80.6114 85° East 196 226 13,000  Level Atlanta Center
Sun 01:24:17 PM 36.5717 -80.5439 85° East 196 226 13,000  Level Atlanta Center
Sun 01:25:17 PM 36.5758 -80.4764 86° East 196 226 13,000  Level Atlanta Center
Sun 01:27:05 PM 36.5853 -80.3464 85° East 198 228 13,000 36 Level Washington Center
Sun 01:28:05 PM 36.5922 -80.2769 83° East 198 228 13,100 50 Climbing Washington Center
Sun 01:29:05 PM 36.5969 -80.2075 85° East 198 228 13,100 -50 Level Washington Center
Sun 01:30:05 PM 36.6017 -80.1403 85° East 198 228 13,000 -50 Descending Washington Center
Sun 01:31:05 PM 36.6061 -80.0811 85° East 198 228 13,000  Level Washington Center
Sun 01:32:05 PM 36.6106 -80.0117 85° East 198 228 13,000 50 Level Washington Center
Sun 01:33:05 PM 36.6153 -79.9444 85° East 198 228 13,100  Climbing Washington Center
Sun 01:34:05 PM 36.6219 -79.8750 83° East 198 228 13,000 -50 Descending Washington Center
Sun 01:35:05 PM 36.6267 -79.8003 85° East 198 228 13,000 50 Level Washington Center
Sun 01:36:05 PM 36.6289 -79.7331 88° East 198 228 13,100 -50 Climbing Washington Center
Sun 01:37:05 PM 36.6356 -79.6636 83° East 198 228 12,900 -300 Descending Washington Center
Sun 01:38:05 PM 36.6147 -79.6028 113° Southeast 193 222 12,500 -450 Descending Washington Center
Sun 01:39:05 PM 36.5742 -79.5647 143° Southeast 195 224 12,000 -450 Descending Washington Center
Sun 01:40:05 PM 36.5319 -79.5186 139° Southeast 201 231 11,600 -400 Descending Washington Center
Sun 01:41:05 PM 36.4897 -79.4700 137° Southeast 206 237 11,200 -450 Descending Washington Center
Sun 01:42:05 PM 36.4472 -79.4239 139° Southeast 201 231 10,700 -500 Descending Washington Center
Sun 01:43:05 PM 36.4092 -79.3781 136° Southeast 195 224 10,200 -470 Descending Washington Center
Sun 01:44:00 PM 36.3686 -79.3375 141° Southeast 189 217 9,800 -414 Descending Washington Center
Sun 01:45:01 PM 36.3306 -79.2919 136° Southeast 190 219 9,400 -432 Descending Washington Center
Sun 01:46:05 PM 36.2881 -79.2461 139° Southeast 195 224 8,900 -435 Descending Washington Center
Sun 01:47:05 PM 36.2497 -79.2031 138° Southeast 189 217 8,500 -381 Descending Washington Center
Sun 01:47:08 PM 36.2497 -79.2031 138° Southeast 187 215 8,500 -469 Level Washington Center
Sun 01:48:09 PM 36.2092 -79.1650 143° Southeast 183 211 8,000 -256 Descending Washington Center
Sun 01:49:05 PM 36.1633 -79.1606 176° South 167 192 8,000 -155 Level Washington Center
Sun 01:50:05 PM 36.1156 -79.1531 173° South 167 192 7,700 -450 Descending Washington Center
Sun 01:51:05 PM 36.0656 -79.1508 178° South 178 205 7,100 -500 Descending Washington Center
Sun 01:52:05 PM 36.0136 -79.1433 173° South 178 205 6,700 -550 Descending Washington Center
Sun 01:53:05 PM 35.9594 -79.1383 176° South 184 212 6,000 -700 Descending Washington Center

Login

Don't have an account? Register now (free) for customized features, flight alerts, and more!